Information Last Ob Photographs Calibration Meteogram Network Table Neighbors Monthly Summaries Observation History Wind Roses Custom Wind Roses Data Calendar Satellite Cloud Product Download

Most Recent Observation

This application displays the last observation received by the IEM from this site. The time stamp is in America/Chicago timezone.

Observation Local Time19 Apr 2024, 4:55 PM
Observation UTC Time2024-04-19T21:55:00Z
Air Temp [F]57.2
Maximum Air Temperature [F]59
Minimum Air Temperature [F]35.6
Dew Point [F]23
Wind DirectionNW (320 degrees)
Wind Speed [knots]9
Altimeter [inches]30.22
Raw Observation/ProductKSDA 192155Z AUTO 32009G19KT 10SM OVC110 14/M05 A3022 RMK AO2
Cloud Layer 1: OVC (11000 feet)

This data was provided by a JSON(P) webservice. You can find more JSON services.